Time;durP1;ratioP1;P1;durP2;ratioP2;P2;SDS_P1;SDS_P2;PMS_P1;PMS_P2;Temp;Humidity;BMP_temperature;BMP_pressure;BME280_temperature;BME280_humidity;BME280_pressure;Samples;Min_cycle;Max_cycle;Signal;HPM_P1;HPM_P2
2023/07/04 00:00:35;;;;;;;4.32;0.30;;;13.10;99.90;;;;;;5006133;28;20029;-78
2023/07/04 00:03:03;;;;;;;4.43;0.40;;;13.10;99.90;;;;;;5006478;28;20080;-78
2023/07/04 00:05:29;;;;;;;4.43;0.40;;;13.00;99.90;;;;;;5007655;28;20073;-79
2023/07/04 00:07:54;;;;;;;4.22;0.40;;;13.10;99.90;;;;;;5008534;28;20407;-79
2023/07/04 00:10:20;;;;;;;4.00;0.40;;;13.10;99.90;;;;;;5023492;28;20034;-78
2023/07/04 00:12:46;;;;;;;2.92;0.50;;;13.20;99.90;;;;;;5022490;28;20440;-79
2023/07/04 00:15:13;;;;;;;2.42;0.30;;;13.20;99.90;;;;;;5022514;28;20128;-79
2023/07/04 00:17:42;;;;;;;5.63;0.50;;;13.20;99.90;;;;;;5019083;28;20026;-79
2023/07/04 00:20:13;;;;;;;2.70;0.40;;;13.30;99.90;;;;;;5008360;28;20038;-78
2023/07/04 00:22:40;;;;;;;2.13;0.30;;;13.30;99.90;;;;;;5004261;28;20040;-78
2023/07/04 00:25:06;;;;;;;3.20;0.30;;;13.30;99.90;;;;;;5006266;28;20114;-78
2023/07/04 00:27:32;;;;;;;2.10;0.30;;;13.30;99.90;;;;;;5025921;28;20049;-79
2023/07/04 00:29:58;;;;;;;1.13;0.28;;;13.30;99.90;;;;;;5016794;28;20063;-79
2023/07/04 00:32:25;;;;;;;2.97;0.30;;;13.30;99.90;;;;;;5002463;28;20129;-81
2023/07/04 00:34:50;;;;;;;1.83;0.30;;;13.40;99.90;;;;;;5023201;28;20068;-79
2023/07/04 00:37:21;;;;;;;1.67;0.22;;;13.40;99.90;;;;;;5006449;28;20029;-79
2023/07/04 00:39:48;;;;;;;2.53;0.38;;;13.30;99.90;;;;;;5021244;28;20422;-80
2023/07/04 00:42:14;;;;;;;1.50;0.30;;;13.30;99.90;;;;;;5021490;28;20076;-79
2023/07/04 00:44:47;;;;;;;5.93;0.30;;;13.30;99.90;;;;;;5007999;28;20482;-78
2023/07/04 00:47:21;;;;;;;2.30;0.20;;;13.30;99.90;;;;;;5004301;28;20041;-78
2023/07/04 00:49:50;;;;;;;2.22;0.30;;;13.40;99.90;;;;;;5002025;28;20030;-79
2023/07/04 00:52:31;;;;;;;1.23;0.10;;;13.40;99.90;;;;;;5021033;28;20037;-78
2023/07/04 00:55:00;;;;;;;2.80;0.20;;;13.30;99.90;;;;;;5005817;28;20025;-78
2023/07/04 00:57:31;;;;;;;1.25;0.22;;;13.30;99.90;;;;;;5017411;28;20021;-79
2023/07/04 00:59:58;;;;;;;1.30;0.20;;;13.40;99.90;;;;;;5008798;28;20075;-78
2023/07/04 01:02:28;;;;;;;3.90;0.30;;;13.30;99.90;;;;;;5005826;28;20053;-80
2023/07/04 01:04:56;;;;;;;2.60;0.28;;;13.30;99.90;;;;;;5023660;28;20056;-78
2023/07/04 01:07:42;;;;;;;2.03;0.30;;;13.20;99.90;;;;;;5022297;28;20025;-78
2023/07/04 01:10:14;;;;;;;5.28;0.40;;;13.20;99.90;;;;;;5026689;28;20028;-79
2023/07/04 01:12:40;;;;;;;3.92;0.50;;;13.20;99.90;;;;;;5021708;28;20034;-79
2023/07/04 01:15:08;;;;;;;1.55;0.25;;;13.20;99.90;;;;;;5004170;28;20108;-76
2023/07/04 01:17:34;;;;;;;4.68;0.60;;;13.20;99.90;;;;;;5023497;28;20025;-79
2023/07/04 01:20:02;;;;;;;4.47;0.40;;;13.20;99.90;;;;;;5026264;28;20030;-78
2023/07/04 01:23:03;;;;;;;4.03;0.40;;;13.20;99.90;;;;;;5024932;28;20021;-78
2023/07/04 01:25:46;;;;;;;5.28;0.40;;;13.10;99.90;;;;;;5006173;28;21877;-79
2023/07/04 01:28:13;;;;;;;5.85;0.77;;;13.10;99.90;;;;;;5026518;28;20030;-80
2023/07/04 01:30:42;;;;;;;4.70;0.40;;;13.10;99.90;;;;;;5012653;28;20021;-78
2023/07/04 01:33:09;;;;;;;7.57;0.55;;;13.10;99.90;;;;;;5024158;28;20022;-78
2023/07/04 01:35:36;;;;;;;5.65;0.88;;;13.10;99.90;;;;;;5026765;28;20032;-80
2023/07/04 01:38:03;;;;;;;5.80;0.63;;;13.10;99.90;;;;;;5023146;28;20046;-79
2023/07/04 01:40:30;;;;;;;5.90;0.63;;;13.10;99.90;;;;;;5017261;28;20029;-79
2023/07/04 01:42:57;;;;;;;6.95;0.70;;;13.10;99.90;;;;;;5008567;28;20080;-78
2023/07/04 01:45:23;;;;;;;6.68;0.60;;;13.10;99.90;;;;;;5009829;28;20478;-80
2023/07/04 01:47:49;;;;;;;5.18;0.63;;;13.10;99.90;;;;;;5010259;28;20045;-78
2023/07/04 01:50:14;;;;;;;5.93;0.60;;;13.10;99.90;;;;;;5007003;28;20869;-78
2023/07/04 01:52:42;;;;;;;3.75;0.60;;;13.20;99.90;;;;;;5036874;28;20021;-79
2023/07/04 01:55:09;;;;;;;4.75;0.60;;;13.30;99.90;;;;;;5022893;28;20122;-79
2023/07/04 01:57:35;;;;;;;7.53;1.52;;;13.30;99.90;;;;;;5011732;28;20481;-79
2023/07/04 02:00:01;;;;;;;10.80;1.05;;;13.30;99.90;;;;;;5008434;28;20029;-79
2023/07/04 02:02:26;;;;;;;12.50;1.23;;;13.30;99.90;;;;;;5006541;28;20480;-78
2023/07/04 02:04:54;;;;;;;12.27;1.25;;;13.40;99.90;;;;;;5006525;28;20365;-79
2023/07/04 02:07:20;;;;;;;7.03;0.90;;;13.40;99.90;;;;;;5006757;28;20029;-78
2023/07/04 02:09:46;;;;;;;7.95;0.85;;;13.40;99.90;;;;;;5024534;28;20028;-79
2023/07/04 02:12:12;;;;;;;7.30;0.80;;;13.40;99.90;;;;;;5005980;28;20029;-80
2023/07/04 02:14:38;;;;;;;3.67;0.75;;;13.40;99.90;;;;;;5021680;28;20402;-80
2023/07/04 02:17:04;;;;;;;5.10;0.70;;;13.40;99.90;;;;;;5018752;28;20038;-79
2023/07/04 02:19:29;;;;;;;3.83;0.70;;;13.40;99.90;;;;;;5007942;28;20021;-80
2023/07/04 02:21:56;;;;;;;2.95;0.50;;;13.50;99.90;;;;;;5027203;28;20087;-81
2023/07/04 02:24:23;;;;;;;4.80;0.50;;;13.50;99.90;;;;;;5022943;28;20025;-80
2023/07/04 02:26:49;;;;;;;4.30;0.50;;;13.50;99.90;;;;;;5023717;28;20045;-80
2023/07/04 02:29:14;;;;;;;2.95;0.40;;;13.50;99.90;;;;;;5010440;28;20139;-80
2023/07/04 02:31:40;;;;;;;1.98;0.50;;;13.50;99.90;;;;;;5007854;28;20033;-80
2023/07/04 02:34:06;;;;;;;2.10;0.40;;;13.50;99.90;;;;;;5011632;28;20057;-81
2023/07/04 02:36:33;;;;;;;4.80;0.70;;;13.50;99.90;;;;;;5008763;28;20103;-79
2023/07/04 02:38:58;;;;;;;2.85;0.43;;;13.50;99.90;;;;;;5007879;28;20470;-79
2023/07/04 02:41:24;;;;;;;3.22;0.68;;;13.50;99.90;;;;;;5011775;28;20021;-79
2023/07/04 02:43:52;;;;;;;4.05;0.65;;;13.60;99.90;;;;;;5026998;28;20037;-79
2023/07/04 02:46:18;;;;;;;4.20;0.65;;;13.50;99.90;;;;;;5024985;28;20034;-79
2023/07/04 02:48:47;;;;;;;3.47;0.43;;;13.50;99.90;;;;;;5027350;28;20029;-78
2023/07/04 02:51:13;;;;;;;3.38;0.40;;;13.50;99.90;;;;;;5005147;28;20438;-79
2023/07/04 02:53:39;;;;;;;3.80;0.50;;;13.50;99.90;;;;;;5023991;28;20048;-77
2023/07/04 02:56:05;;;;;;;3.03;0.50;;;13.50;99.90;;;;;;5022164;28;20460;-79
2023/07/04 02:58:32;;;;;;;2.25;0.55;;;13.40;99.90;;;;;;5020510;28;20029;-79
2023/07/04 03:00:58;;;;;;;2.47;0.43;;;13.50;99.90;;;;;;5017881;28;20064;-78
2023/07/04 03:03:27;;;;;;;4.22;0.50;;;13.40;99.90;;;;;;5009239;28;20498;-78
2023/07/04 03:05:55;;;;;;;2.90;0.40;;;13.30;99.90;;;;;;5009538;28;20041;-76
2023/07/04 03:08:22;;;;;;;3.63;0.60;;;13.30;99.90;;;;;;5022932;28;20026;-79
2023/07/04 03:10:49;;;;;;;2.30;0.30;;;13.30;99.90;;;;;;5009797;28;20025;-78
2023/07/04 03:13:18;;;;;;;3.50;0.50;;;13.20;99.90;;;;;;5024733;28;20131;-80
2023/07/04 03:15:44;;;;;;;1.70;0.30;;;13.20;99.90;;;;;;5011009;28;20113;-80
2023/07/04 03:18:10;;;;;;;5.05;0.95;;;13.10;99.90;;;;;;5023103;28;20481;-78
2023/07/04 03:20:38;;;;;;;1.45;0.30;;;13.10;99.90;;;;;;5007037;28;20049;-78
2023/07/04 03:23:04;;;;;;;2.13;0.30;;;13.10;99.90;;;;;;5015995;28;20080;-79
2023/07/04 03:25:32;;;;;;;2.70;0.30;;;13.00;99.90;;;;;;5007991;28;20124;-79
2023/07/04 03:27:59;;;;;;;2.92;0.30;;;13.00;99.90;;;;;;5025989;28;20018;-78
2023/07/04 03:30:27;;;;;;;2.35;0.32;;;13.00;99.90;;;;;;5020051;28;20072;-79
2023/07/04 03:32:57;;;;;;;;;;;13.10;99.90;;;;;;5022189;28;20020;-81
2023/07/04 03:35:24;;;;;;;1.83;0.30;;;13.00;99.90;;;;;;5024903;28;19983;-79
2023/07/04 03:37:50;;;;;;;3.47;0.47;;;13.00;99.90;;;;;;5020633;28;20536;-78
2023/07/04 03:40:16;;;;;;;2.30;0.30;;;13.00;99.90;;;;;;5005091;28;20030;-79
2023/07/04 03:42:42;;;;;;;2.72;0.40;;;12.90;99.90;;;;;;5019469;28;20124;-78
2023/07/04 03:45:09;;;;;;;2.75;0.40;;;12.90;99.90;;;;;;5017452;28;20132;-79
2023/07/04 03:47:35;;;;;;;2.25;0.30;;;13.00;99.90;;;;;;5018303;28;20044;-80
2023/07/04 03:50:03;;;;;;;2.15;0.40;;;13.00;99.90;;;;;;5019803;28;20030;-80
2023/07/04 03:52:29;;;;;;;2.35;0.30;;;13.00;99.90;;;;;;5008941;28;20087;-79
2023/07/04 03:54:55;;;;;;;2.25;0.38;;;13.00;99.90;;;;;;5003311;28;20021;-80
2023/07/04 03:57:21;;;;;;;2.03;0.28;;;13.00;99.90;;;;;;5009549;28;20424;-79
2023/07/04 03:59:47;;;;;;;3.70;0.30;;;13.00;99.90;;;;;;5008406;28;20030;-78
2023/07/04 04:02:12;;;;;;;2.20;0.30;;;13.00;99.90;;;;;;5007340;28;20045;-78
2023/07/04 04:04:39;;;;;;;1.80;0.40;;;13.00;99.90;;;;;;5016511;28;20076;-78
2023/07/04 04:07:07;;;;;;;3.22;0.30;;;13.00;99.90;;;;;;5023464;28;20147;-79
2023/07/04 04:09:34;;;;;;;2.00;0.38;;;13.10;99.90;;;;;;5003797;28;20033;-79
2023/07/04 04:12:04;;;;;;;1.17;0.25;;;13.10;99.90;;;;;;5006552;28;20475;-80
2023/07/04 04:14:30;;;;;;;1.58;0.20;;;13.20;99.90;;;;;;5003934;28;20098;-80
2023/07/04 04:16:57;;;;;;;1.70;0.40;;;13.20;99.90;;;;;;5022486;28;22042;-80
2023/07/04 04:19:26;;;;;;;0.95;0.20;;;13.20;99.90;;;;;;5004142;28;20041;-79
2023/07/04 04:21:53;;;;;;;2.70;0.30;;;13.20;99.90;;;;;;5006089;28;20018;-78
2023/07/04 04:24:20;;;;;;;2.55;0.30;;;13.30;99.90;;;;;;5020521;28;20022;-80
2023/07/04 04:26:46;;;;;;;2.65;0.30;;;13.30;99.90;;;;;;4999023;28;20538;-80
2023/07/04 04:29:15;;;;;;;2.83;0.40;;;13.30;99.90;;;;;;5003731;28;20026;-78
2023/07/04 04:31:41;;;;;;;1.65;0.60;;;13.40;99.90;;;;;;5008220;28;20124;-80
2023/07/04 04:34:08;;;;;;;3.00;0.40;;;13.30;99.90;;;;;;5022846;28;20116;-80
2023/07/04 04:36:34;;;;;;;3.75;0.32;;;13.30;99.90;;;;;;5014774;28;20542;-80
2023/07/04 04:39:01;;;;;;;2.65;0.47;;;13.40;99.90;;;;;;5019400;28;20050;-80
2023/07/04 04:41:28;;;;;;;3.80;0.40;;;13.40;99.90;;;;;;5016688;28;20025;-80
2023/07/04 04:43:56;;;;;;;3.58;0.70;;;13.40;99.90;;;;;;5036658;28;20032;-79
2023/07/04 04:46:22;;;;;;;3.25;0.70;;;13.40;99.90;;;;;;5008135;28;20037;-79
2023/07/04 04:48:49;;;;;;;3.85;1.08;;;13.40;99.90;;;;;;5025427;28;20025;-80
2023/07/04 04:51:15;;;;;;;5.25;0.90;;;13.50;99.90;;;;;;5020064;28;20516;-80
2023/07/04 04:53:44;;;;;;;4.38;0.68;;;13.60;99.90;;;;;;5016892;28;20037;-79
2023/07/04 04:56:11;;;;;;;5.32;0.70;;;13.70;99.90;;;;;;5021039;28;20034;-81
2023/07/04 04:58:38;;;;;;;3.40;0.50;;;13.80;99.90;;;;;;5020102;28;20383;-80
2023/07/04 05:01:14;;;;;;;3.05;0.50;;;13.90;99.90;;;;;;5020099;28;20057;-80
2023/07/04 05:03:41;;;;;;;4.63;0.70;;;13.90;99.90;;;;;;5021382;28;20117;-80
2023/07/04 05:06:07;;;;;;;2.03;0.50;;;14.20;99.90;;;;;;5014645;28;20041;-79
2023/07/04 05:08:33;;;;;;;4.53;0.60;;;14.20;99.90;;;;;;5019918;28;20398;-80
2023/07/04 05:11:07;;;;;;;3.55;0.52;;;14.40;99.90;;;;;;5016430;28;20077;-78
2023/07/04 05:13:40;;;;;;;2.80;0.70;;;14.50;99.90;;;;;;4994174;28;20033;-77
2023/07/04 05:16:09;;;;;;;7.22;0.75;;;14.70;99.90;;;;;;4992588;28;20037;-77
2023/07/04 05:18:36;;;;;;;4.18;0.80;;;14.80;99.90;;;;;;4996500;28;20045;-78
2023/07/04 05:21:06;;;;;;;6.00;0.90;;;14.90;99.90;;;;;;5011692;28;20069;-79
2023/07/04 05:23:34;;;;;;;5.47;1.20;;;14.80;99.90;;;;;;5013425;28;20034;-79
2023/07/04 05:26:10;;;;;;;5.65;1.42;;;14.70;99.90;;;;;;5003617;28;20046;-79
2023/07/04 05:28:37;;;;;;;5.38;1.08;;;14.60;99.90;;;;;;5022001;28;20092;-78
2023/07/04 05:31:08;;;;;;;6.35;1.30;;;14.60;99.90;;;;;;5019057;28;20437;-79
2023/07/04 05:33:34;;;;;;;4.60;0.93;;;14.60;99.90;;;;;;5002528;28;20092;-80
2023/07/04 05:36:07;;;;;;;7.38;1.70;;;14.60;99.90;;;;;;5015207;28;20129;-80
2023/07/04 05:38:33;;;;;;;5.07;1.23;;;14.60;99.90;;;;;;5001223;28;20732;-78
2023/07/04 05:40:59;;;;;;;6.65;1.20;;;14.80;99.90;;;;;;5023430;28;20078;-79
2023/07/04 05:43:25;;;;;;;7.78;1.90;;;15.00;99.90;;;;;;5022183;28;20024;-78
2023/07/04 05:45:52;;;;;;;7.95;1.90;;;14.90;99.90;;;;;;5002659;28;20419;-78
2023/07/04 05:48:18;;;;;;;7.60;1.00;;;15.10;99.90;;;;;;5015364;28;20372;-79
2023/07/04 05:50:58;;;;;;;7.00;1.55;;;15.20;99.90;;;;;;4999242;28;20379;-78
2023/07/04 05:53:27;;;;;;;7.53;1.73;;;15.30;99.90;;;;;;5019148;28;20083;-79
2023/07/04 05:56:04;;;;;;;5.95;1.20;;;15.10;99.90;;;;;;5019793;28;20370;-80
2023/07/04 05:58:30;;;;;;;6.55;1.30;;;15.20;99.90;;;;;;5006116;28;20026;-78
2023/07/04 06:00:59;;;;;;;5.15;1.10;;;15.10;99.90;;;;;;5004613;28;20037;-78
2023/07/04 06:03:25;;;;;;;9.73;2.13;;;15.20;99.90;;;;;;5026672;28;20076;-78
2023/07/04 06:05:51;;;;;;;6.30;1.77;;;15.30;99.90;;;;;;5009737;28;20136;-78
2023/07/04 06:08:16;;;;;;;7.15;1.00;;;15.40;99.90;;;;;;5007204;28;20120;-78
2023/07/04 06:10:42;;;;;;;4.28;0.70;;;15.80;99.90;;;;;;5011049;28;20029;-79
2023/07/04 06:13:08;;;;;;;8.80;1.80;;;16.10;99.90;;;;;;5019378;28;20390;-78
2023/07/04 06:15:40;;;;;;;9.68;2.30;;;16.50;99.90;;;;;;5025135;28;20030;-78
2023/07/04 06:18:06;;;;;;;8.68;1.20;;;16.40;99.90;;;;;;5022428;28;20417;-80
2023/07/04 06:20:32;;;;;;;9.45;1.77;;;16.50;99.90;;;;;;5024565;28;20028;-79
2023/07/04 06:22:57;;;;;;;17.27;2.40;;;16.20;99.90;;;;;;5007365;28;20473;-79
2023/07/04 06:25:23;;;;;;;16.52;3.50;;;16.10;99.90;;;;;;5006773;28;20049;-79
2023/07/04 06:27:49;;;;;;;10.68;2.13;;;16.00;99.90;;;;;;5025343;28;20106;-78
2023/07/04 06:30:14;;;;;;;13.65;3.10;;;16.50;99.90;;;;;;5025392;28;20094;-80
2023/07/04 06:32:40;;;;;;;12.07;2.53;;;16.30;99.90;;;;;;5024405;28;20069;-79
2023/07/04 06:35:07;;;;;;;17.35;3.25;;;16.20;99.90;;;;;;5027459;28;20053;-80
2023/07/04 06:37:32;;;;;;;15.60;2.55;;;16.10;99.90;;;;;;5009581;28;20030;-79
2023/07/04 06:39:58;;;;;;;14.80;3.25;;;16.30;99.90;;;;;;5017334;28;20041;-80
2023/07/04 06:42:23;;;;;;;14.20;2.67;;;16.50;99.90;;;;;;5024638;28;20026;-79
2023/07/04 06:44:53;;;;;;;11.45;1.90;;;16.50;99.90;;;;;;5028127;28;20029;-79
2023/07/04 06:47:19;;;;;;;12.82;2.60;;;16.40;99.90;;;;;;5018481;28;20030;-79
2023/07/04 06:49:44;;;;;;;11.40;1.98;;;16.50;99.90;;;;;;5017961;28;20022;-81
2023/07/04 06:52:10;;;;;;;13.30;2.60;;;16.80;99.90;;;;;;5016929;28;20123;-79
2023/07/04 06:54:36;;;;;;;9.63;1.58;;;16.90;99.90;;;;;;5017473;28;20156;-80
2023/07/04 06:57:05;;;;;;;14.25;3.08;;;17.20;99.90;;;;;;5014266;28;20037;-80
2023/07/04 06:59:31;;;;;;;11.85;2.40;;;17.00;99.90;;;;;;4999735;28;20045;-79
2023/07/04 07:01:56;;;;;;;11.32;2.15;;;16.70;99.90;;;;;;5004889;28;20049;-81
2023/07/04 07:04:22;;;;;;;14.20;2.75;;;17.00;99.90;;;;;;5015634;28;20474;-80
2023/07/04 07:06:48;;;;;;;10.88;2.65;;;16.90;99.90;;;;;;5017180;28;20037;-80
2023/07/04 07:09:14;;;;;;;8.40;1.75;;;16.60;99.90;;;;;;5015192;28;20029;-81
2023/07/04 07:11:41;;;;;;;14.02;2.85;;;16.60;99.90;;;;;;5013061;28;20492;-80
2023/07/04 07:14:06;;;;;;;12.63;2.95;;;17.00;99.90;;;;;;5022387;28;20022;-80
2023/07/04 07:16:32;;;;;;;16.13;2.28;;;16.80;99.90;;;;;;4999753;28;20504;-80
2023/07/04 07:18:59;;;;;;;13.35;2.35;;;16.80;99.90;;;;;;5005263;28;20032;-79
2023/07/04 07:21:26;;;;;;;14.73;1.85;;;17.00;99.90;;;;;;5014142;28;20029;-80
2023/07/04 07:23:52;;;;;;;8.23;1.33;;;17.20;99.90;;;;;;4961084;28;20379;-79
2023/07/04 07:26:22;;;;;;;9.18;1.38;;;17.50;99.90;;;;;;5006635;28;20049;-78
2023/07/04 07:28:48;;;;;;;;;;;17.50;99.90;;;;;;5017869;28;20026;-80
2023/07/04 07:31:20;;;;;;;9.85;1.63;;;17.60;99.90;;;;;;4997200;28;19909;-80
2023/07/04 07:33:48;;;;;;;6.40;1.05;;;17.60;99.90;;;;;;4999891;28;20029;-80
2023/07/04 07:36:30;;;;;;;8.60;1.10;;;17.20;99.90;;;;;;5015683;28;20128;-79
2023/07/04 07:38:57;;;;;;;12.77;1.88;;;17.20;99.90;;;;;;5015532;28;20082;-80
2023/07/04 07:41:29;;;;;;;6.70;1.48;;;17.40;99.90;;;;;;4985431;28;20033;-79
2023/07/04 07:43:55;;;;;;;11.13;1.05;;;17.70;99.90;;;;;;5010617;28;20038;-78
2023/07/04 07:46:21;;;;;;;9.63;1.70;;;17.80;99.90;;;;;;4994828;28;20048;-79
2023/07/04 07:48:48;;;;;;;10.10;1.45;;;17.80;99.90;;;;;;5010657;28;20662;-79
2023/07/04 07:51:15;;;;;;;8.40;0.80;;;17.70;99.90;;;;;;5009229;28;20041;-79
2023/07/04 07:53:43;;;;;;;12.77;1.50;;;17.60;99.90;;;;;;5010192;28;20040;-79
2023/07/04 07:56:12;;;;;;;9.38;1.10;;;17.20;99.90;;;;;;5025909;28;20482;-80
2023/07/04 07:58:38;;;;;;;7.43;1.13;;;17.40;99.90;;;;;;5010688;28;20121;-80
2023/07/04 08:01:11;;;;;;;5.70;0.90;;;17.60;99.90;;;;;;5010571;28;20073;-80
2023/07/04 08:03:38;;;;;;;7.97;1.50;;;17.80;99.90;;;;;;5010326;28;20038;-80
2023/07/04 08:06:03;;;;;;;10.70;1.10;;;17.70;99.90;;;;;;5023876;28;20142;-81
2023/07/04 08:08:29;;;;;;;3.83;0.70;;;17.90;99.90;;;;;;4992524;28;20021;-80
2023/07/04 08:10:55;;;;;;;6.43;0.63;;;18.40;99.90;;;;;;4993379;28;20706;-79
2023/07/04 08:13:20;;;;;;;8.90;0.77;;;18.40;99.90;;;;;;5010952;28;20447;-81
2023/07/04 08:15:53;;;;;;;5.78;0.88;;;17.70;99.90;;;;;;5016117;28;20033;-79
2023/07/04 08:18:20;;;;;;;6.10;1.02;;;17.50;99.90;;;;;;5008925;28;20425;-82
2023/07/04 08:21:01;;;;;;;6.40;0.77;;;17.70;99.90;;;;;;5010578;28;20036;-80
2023/07/04 08:23:27;;;;;;;5.78;0.70;;;17.60;99.90;;;;;;5010342;28;20033;-80
2023/07/04 08:25:54;;;;;;;5.55;0.80;;;17.80;99.90;;;;;;4993843;28;20062;-80
2023/07/04 08:28:23;;;;;;;6.28;0.80;;;17.70;99.90;;;;;;5003033;28;20093;-80
2023/07/04 08:30:49;;;;;;;8.07;0.85;;;18.00;99.90;;;;;;5013625;28;20052;-80
2023/07/04 08:33:17;;;;;;;5.28;0.60;;;17.90;99.90;;;;;;5014699;28;20037;-80
2023/07/04 08:36:08;;;;;;;9.57;0.80;;;17.90;99.90;;;;;;5016133;28;20094;-80
2023/07/04 08:38:34;;;;;;;6.88;1.10;;;18.00;99.90;;;;;;5010846;28;21918;-81
2023/07/04 08:41:01;;;;;;;5.75;0.70;;;17.90;99.90;;;;;;5000850;28;20032;-80
2023/07/04 08:43:44;;;;;;;10.85;1.02;;;17.80;99.90;;;;;;5016259;28;20040;-81
2023/07/04 08:46:13;;;;;;;7.78;1.00;;;17.50;99.90;;;;;;5003225;28;20045;-80
2023/07/04 08:48:40;;;;;;;7.00;0.68;;;17.70;99.90;;;;;;5018073;28;20025;-80
2023/07/04 08:51:07;;;;;;;4.93;0.80;;;17.80;99.90;;;;;;4997457;28;20038;-81
2023/07/04 08:53:35;;;;;;;5.22;0.63;;;17.60;99.90;;;;;;5014539;28;20033;-80
2023/07/04 08:56:10;;;;;;;5.90;1.15;;;17.70;99.90;;;;;;5002138;28;20041;-80
2023/07/04 08:59:00;;;;;;;7.78;0.90;;;17.60;99.90;;;;;;5012758;28;20026;-80
2023/07/04 09:01:52;;;;;;;8.57;0.80;;;17.70;99.90;;;;;;4983876;28;20076;-80
2023/07/04 09:04:33;;;;;;;7.70;1.23;;;17.70;99.90;;;;;;5010548;28;20025;-79
2023/07/04 09:07:12;;;;;;;5.72;0.80;;;17.80;99.90;;;;;;4999085;28;20112;-80
2023/07/04 09:10:01;;;;;;;9.65;0.70;;;18.00;99.90;;;;;;4997377;28;20026;-78
2023/07/04 09:12:34;;;;;;;;;;;18.40;99.90;;;;;;5012625;28;20390;-79
2023/07/04 09:15:19;;;;;;;11.98;1.35;;;18.40;99.90;;;;;;5017839;28;20255;-80
2023/07/04 09:18:07;;;;;;;8.60;1.00;;;18.40;99.90;;;;;;5026352;28;20045;-79
2023/07/04 09:20:38;;;;;;;6.72;0.70;;;18.20;99.90;;;;;;5000290;28;20028;-80
2023/07/04 09:23:13;;;;;;;6.80;0.60;;;18.30;99.90;;;;;;5013904;28;20128;-80
2023/07/04 09:25:39;;;;;;;6.00;0.80;;;18.80;99.90;;;;;;4995791;28;20360;-80
2023/07/04 09:28:05;;;;;;;10.50;0.80;;;18.50;99.90;;;;;;5015412;28;20513;-80
2023/07/04 09:30:31;;;;;;;10.55;0.70;;;18.60;99.90;;;;;;5018454;28;20482;-80
2023/07/04 09:32:59;;;;;;;6.68;0.63;;;18.40;99.90;;;;;;5005540;28;20026;-79
2023/07/04 09:35:24;;;;;;;5.43;0.57;;;18.50;99.90;;;;;;5001881;28;20092;-79
2023/07/04 09:38:01;;;;;;;6.03;0.57;;;18.70;99.90;;;;;;5005792;28;20037;-80
2023/07/04 09:40:48;;;;;;;8.15;0.90;;;18.50;99.90;;;;;;5005190;28;20068;-80
2023/07/04 09:43:35;;;;;;;8.35;0.70;;;18.90;99.90;;;;;;4985399;28;20029;-80
2023/07/04 09:46:17;;;;;;;5.13;0.70;;;18.70;99.90;;;;;;5020997;28;20046;-80
2023/07/04 09:48:43;;;;;;;5.03;0.50;;;18.80;99.90;;;;;;5021541;28;20168;-81
2023/07/04 09:51:25;;;;;;;2.78;0.40;;;18.80;99.90;;;;;;5015712;28;20834;-81
2023/07/04 09:54:07;;;;;;;5.47;0.60;;;19.10;99.90;;;;;;5016582;28;20026;-80
2023/07/04 09:56:33;;;;;;;4.65;0.50;;;19.10;99.90;;;;;;5014345;28;20033;-80
2023/07/04 09:59:21;;;;;;;4.22;0.45;;;19.10;99.90;;;;;;5006129;28;20097;-80
2023/07/04 10:01:50;;;;;;;3.88;0.60;;;19.30;99.90;;;;;;5016610;28;20037;-80
2023/07/04 10:04:36;;;;;;;7.10;0.82;;;20.30;99.90;;;;;;5015562;28;20386;-81
2023/07/04 10:07:10;;;;;;;7.30;0.70;;;20.00;99.90;;;;;;5022924;28;20096;-80
2023/07/04 10:09:54;;;;;;;5.60;0.52;;;19.50;99.90;;;;;;5004005;28;20427;-79
2023/07/04 10:12:21;;;;;;;4.30;0.60;;;20.20;99.90;;;;;;5008578;28;20096;-79
2023/07/04 10:14:50;;;;;;;6.35;0.68;;;20.90;99.90;;;;;;5014018;28;20021;-80
2023/07/04 10:17:19;;;;;;;2.63;0.30;;;21.60;99.90;;;;;;5018908;28;20106;-80
2023/07/04 10:19:55;;;;;;;7.65;0.50;;;21.80;99.90;;;;;;5003045;28;20044;-79
2023/07/04 10:22:38;;;;;;;3.38;0.40;;;20.60;99.90;;;;;;4999754;28;20041;-80
2023/07/04 10:25:18;;;;;;;3.67;0.47;;;20.40;99.90;;;;;;5016796;28;20041;-81
2023/07/04 10:27:58;;;;;;;6.32;0.52;;;20.50;99.90;;;;;;5018834;28;20032;-80
2023/07/04 10:30:30;;;;;;;4.90;0.50;;;19.80;99.90;;;;;;5013564;28;20350;-81
2023/07/04 10:33:07;;;;;;;4.82;0.50;;;19.90;99.90;;;;;;5016643;28;20030;-80
2023/07/04 10:35:39;;;;;;;2.70;0.43;;;20.30;99.90;;;;;;5002876;28;20026;-80
2023/07/04 10:38:12;;;;;;;4.00;0.40;;;20.90;99.90;;;;;;5015030;28;20040;-80
2023/07/04 10:40:39;;;;;;;4.82;0.43;;;20.40;99.90;;;;;;5012072;28;20076;-80
2023/07/04 10:43:21;;;;;;;6.03;0.55;;;19.70;99.90;;;;;;5017490;28;20077;-81
2023/07/04 10:45:48;;;;;;;4.35;0.45;;;19.50;99.90;;;;;;5004617;28;20041;-80
2023/07/04 10:48:16;;;;;;;4.03;0.75;;;19.40;99.90;;;;;;5021171;28;20034;-80
2023/07/04 10:51:00;;;;;;;4.80;0.50;;;19.50;99.90;;;;;;5019220;28;20030;-80
2023/07/04 10:53:26;;;;;;;3.17;0.40;;;19.90;99.90;;;;;;5000356;28;20033;-79
2023/07/04 10:56:06;;;;;;;4.70;0.80;;;20.40;99.90;;;;;;5016758;28;20496;-79
2023/07/04 10:58:38;;;;;;;5.25;0.50;;;20.50;99.90;;;;;;5021250;28;20038;-79
2023/07/04 11:01:19;;;;;;;6.70;0.50;;;20.40;99.90;;;;;;4998665;28;20453;-81
2023/07/04 11:04:09;;;;;;;2.33;0.38;;;19.60;99.90;;;;;;5013282;28;20521;-81
2023/07/04 11:06:40;;;;;;;3.55;0.40;;;19.70;99.90;;;;;;5012593;28;20067;-80
2023/07/04 11:09:09;;;;;;;2.08;0.40;;;19.50;99.90;;;;;;5017889;28;20072;-80
2023/07/04 11:11:37;;;;;;;5.50;0.60;;;19.60;99.90;;;;;;4999947;28;20079;-81
2023/07/04 11:14:06;;;;;;;2.85;0.38;;;19.60;99.90;;;;;;5017190;28;20034;-81
2023/07/04 11:16:39;;;;;;;5.68;0.40;;;20.10;99.90;;;;;;5018245;28;20025;-80
2023/07/04 11:19:08;;;;;;;5.43;0.40;;;20.40;99.90;;;;;;4994470;28;20029;-81
2023/07/04 11:22:00;;;;;;;3.90;0.40;;;20.20;99.90;;;;;;5016677;28;20034;-80
2023/07/04 11:24:45;;;;;;;4.22;0.40;;;19.80;99.90;;;;;;5010029;28;20041;-80
2023/07/04 11:27:17;;;;;;;5.45;0.40;;;20.00;99.90;;;;;;5001273;28;20124;-81
2023/07/04 11:30:02;;;;;;;4.13;0.50;;;20.20;99.90;;;;;;5017790;28;20030;-81
2023/07/04 11:32:37;;;;;;;4.50;0.50;;;20.90;99.90;;;;;;5012379;28;20100;-80
2023/07/04 11:35:07;;;;;;;5.85;0.50;;;21.00;99.90;;;;;;4997310;28;20029;-80
2023/07/04 11:37:52;;;;;;;3.15;0.40;;;21.80;99.90;;;;;;5015775;28;20121;-81
2023/07/04 11:40:24;;;;;;;2.78;0.45;;;21.30;99.90;;;;;;4996980;28;20104;-80
2023/07/04 11:42:58;;;;;;;3.53;0.40;;;21.20;99.90;;;;;;5020962;28;20133;-80
2023/07/04 11:45:29;;;;;;;5.13;0.40;;;20.50;99.90;;;;;;5015937;28;20037;-81
2023/07/04 11:48:03;;;;;;;3.88;0.40;;;20.90;99.90;;;;;;5017251;28;20066;-79
2023/07/04 11:50:32;;;;;;;3.72;0.40;;;21.10;99.90;;;;;;5014120;28;20034;-80
2023/07/04 11:52:59;;;;;;;4.22;0.43;;;21.10;99.90;;;;;;5018388;28;20029;-80
2023/07/04 11:55:30;;;;;;;4.82;0.50;;;20.70;99.90;;;;;;5020702;28;20075;-80
2023/07/04 11:58:08;;;;;;;4.68;0.60;;;20.70;99.90;;;;;;5028644;28;20034;-81
2023/07/04 12:00:39;;;;;;;4.90;0.50;;;20.30;99.90;;;;;;5015248;28;20501;-80
2023/07/04 12:03:20;;;;;;;4.03;0.60;;;19.90;99.90;;;;;;5002308;28;20050;-80
2023/07/04 12:05:52;;;;;;;4.18;0.50;;;19.70;99.90;;;;;;4995015;28;20038;-79
2023/07/04 12:08:36;;;;;;;4.38;0.45;;;19.60;99.90;;;;;;5013695;28;20034;-80
2023/07/04 12:11:06;;;;;;;3.38;0.60;;;19.60;99.90;;;;;;5014866;28;20084;-80
2023/07/04 12:13:36;;;;;;;3.97;0.60;;;19.50;99.90;;;;;;5014990;28;20487;-81
2023/07/04 12:16:03;;;;;;;3.72;0.57;;;19.70;99.90;;;;;;5015104;28;20041;-81
2023/07/04 12:18:34;;;;;;;6.50;0.50;;;19.80;99.90;;;;;;5003606;28;20265;-81
2023/07/04 12:21:00;;;;;;;3.90;0.50;;;19.40;99.90;;;;;;5012937;28;20062;-80
2023/07/04 12:23:26;;;;;;;5.03;0.50;;;19.50;99.90;;;;;;5003053;28;20030;-81
2023/07/04 12:25:55;;;;;;;3.35;0.45;;;19.80;99.90;;;;;;5002410;28;20049;-80
2023/07/04 12:28:26;;;;;;;4.95;0.77;;;20.20;99.90;;;;;;5002850;28;20497;-81
2023/07/04 12:30:57;;;;;;;6.28;0.50;;;20.60;99.90;;;;;;5014858;28;20336;-81
2023/07/04 12:33:31;;;;;;;2.78;0.40;;;20.70;99.90;;;;;;5013191;28;20037;-81
2023/07/04 12:36:06;;;;;;;6.45;0.50;;;21.30;99.90;;;;;;4998531;28;20056;-80
2023/07/04 12:38:33;;;;;;;3.53;0.40;;;21.40;99.90;;;;;;5017782;28;20090;-81
2023/07/04 12:41:00;;;;;;;6.07;0.50;;;20.60;99.90;;;;;;5025956;28;20037;-81
2023/07/04 12:43:29;;;;;;;6.55;0.50;;;20.30;99.90;;;;;;5018776;28;20053;-81
2023/07/04 12:46:07;;;;;;;4.47;0.50;;;20.50;99.90;;;;;;5012606;28;20029;-81
2023/07/04 12:48:35;;;;;;;3.30;0.47;;;20.30;99.90;;;;;;5017382;28;20111;-80
2023/07/04 12:51:02;;;;;;;2.85;0.40;;;20.30;99.90;;;;;;5009894;28;20044;-80
2023/07/04 12:53:28;;;;;;;3.75;0.30;;;20.10;99.90;;;;;;5019536;28;20040;-80
2023/07/04 12:55:55;;;;;;;3.58;0.40;;;20.00;99.90;;;;;;5019928;28;20033;-81
2023/07/04 12:58:20;;;;;;;5.68;0.57;;;19.80;99.90;;;;;;4997870;28;20025;-80